sensor_id;sensor_type;location;lat;lon;timestamp;temperature;humidity
31837;DHT22;18401;49.344;6.240;2022-07-03T00:01:04;13.30;99.90
31837;DHT22;18401;49.344;6.240;2022-07-03T00:03:29;13.30;99.90
31837;DHT22;18401;49.344;6.240;2022-07-03T00:05:55;13.30;99.90
31837;DHT22;18401;49.344;6.240;2022-07-03T00:08:21;13.20;99.90
31837;DHT22;18401;49.344;6.240;2022-07-03T00:10:47;13.20;99.90
31837;DHT22;18401;49.344;6.240;2022-07-03T00:13:13;13.10;99.90
31837;DHT22;18401;49.344;6.240;2022-07-03T00:15:38;13.00;99.90
31837;DHT22;18401;49.344;6.240;2022-07-03T00:18:04;12.90;99.90
31837;DHT22;18401;49.344;6.240;2022-07-03T00:20:34;12.90;99.90
31837;DHT22;18401;49.344;6.240;2022-07-03T00:23:04;12.80;99.90
31837;DHT22;18401;49.344;6.240;2022-07-03T00:25:32;12.90;99.90
31837;DHT22;18401;49.344;6.240;2022-07-03T00:27:59;12.90;99.90
31837;DHT22;18401;49.344;6.240;2022-07-03T00:30:25;13.20;99.90
31837;DHT22;18401;49.344;6.240;2022-07-03T00:32:52;13.30;99.90
31837;DHT22;18401;49.344;6.240;2022-07-03T00:35:18;13.40;99.90
31837;DHT22;18401;49.344;6.240;2022-07-03T00:37:44;13.40;99.90
31837;DHT22;18401;49.344;6.240;2022-07-03T00:40:10;13.40;99.90
31837;DHT22;18401;49.344;6.240;2022-07-03T00:42:38;13.20;99.90
31837;DHT22;18401;49.344;6.240;2022-07-03T00:45:08;13.10;99.90
31837;DHT22;18401;49.344;6.240;2022-07-03T00:47:36;13.20;99.90
31837;DHT22;18401;49.344;6.240;2022-07-03T00:50:06;13.20;99.90
31837;DHT22;18401;49.344;6.240;2022-07-03T00:52:33;13.20;99.90
31837;DHT22;18401;49.344;6.240;2022-07-03T00:55:00;13.20;99.90
31837;DHT22;18401;49.344;6.240;2022-07-03T00:57:29;13.20;99.90
31837;DHT22;18401;49.344;6.240;2022-07-03T00:59:55;13.20;99.90
31837;DHT22;18401;49.344;6.240;2022-07-03T01:05:37;13.20;99.90
31837;DHT22;18401;49.344;6.240;2022-07-03T01:08:31;13.10;99.90
31837;DHT22;18401;49.344;6.240;2022-07-03T01:14:10;13.20;99.90
31837;DHT22;18401;49.344;6.240;2022-07-03T01:30:30;12.80;99.90
31837;DHT22;18401;49.344;6.240;2022-07-03T01:33:03;12.80;99.90
31837;DHT22;18401;49.344;6.240;2022-07-03T01:35:36;12.70;99.90
31837;DHT22;18401;49.344;6.240;2022-07-03T01:38:04;12.80;99.90
31837;DHT22;18401;49.344;6.240;2022-07-03T01:40:33;12.80;99.90
31837;DHT22;18401;49.344;6.240;2022-07-03T01:42:59;12.80;99.90
31837;DHT22;18401;49.344;6.240;2022-07-03T01:45:27;12.90;99.90
31837;DHT22;18401;49.344;6.240;2022-07-03T01:47:56;13.00;99.90
31837;DHT22;18401;49.344;6.240;2022-07-03T01:50:23;13.00;99.90
31837;DHT22;18401;49.344;6.240;2022-07-03T01:52:50;12.70;99.90
31837;DHT22;18401;49.344;6.240;2022-07-03T01:55:17;13.20;99.90
31837;DHT22;18401;49.344;6.240;2022-07-03T01:57:49;13.20;99.90
31837;DHT22;18401;49.344;6.240;2022-07-03T02:00:20;14.00;99.90
31837;DHT22;18401;49.344;6.240;2022-07-03T02:03:03;13.10;99.90
31837;DHT22;18401;49.344;6.240;2022-07-03T02:11:21;12.90;99.90
31837;DHT22;18401;49.344;6.240;2022-07-03T02:19:11;12.90;99.90
31837;DHT22;18401;49.344;6.240;2022-07-03T02:21:44;12.80;99.90
31837;DHT22;18401;49.344;6.240;2022-07-03T02:24:18;13.00;99.90
31837;DHT22;18401;49.344;6.240;2022-07-03T02:26:56;13.20;99.90
31837;DHT22;18401;49.344;6.240;2022-07-03T02:29:33;13.30;99.90
31837;DHT22;18401;49.344;6.240;2022-07-03T02:32:03;13.40;99.90
31837;DHT22;18401;49.344;6.240;2022-07-03T02:34:32;13.40;99.90
31837;DHT22;18401;49.344;6.240;2022-07-03T02:37:09;13.50;99.90
31837;DHT22;18401;49.344;6.240;2022-07-03T02:39:51;13.60;99.90
31837;DHT22;18401;49.344;6.240;2022-07-03T02:42:48;13.60;99.90
31837;DHT22;18401;49.344;6.240;2022-07-03T02:45:17;13.40;99.90
31837;DHT22;18401;49.344;6.240;2022-07-03T02:50:20;12.70;99.90
31837;DHT22;18401;49.344;6.240;2022-07-03T02:52:54;12.60;99.90
31837;DHT22;18401;49.344;6.240;2022-07-03T02:55:44;12.50;99.90
31837;DHT22;18401;49.344;6.240;2022-07-03T03:00:46;12.30;99.90
31837;DHT22;18401;49.344;6.240;2022-07-03T03:03:17;12.30;99.90
31837;DHT22;18401;49.344;6.240;2022-07-03T03:05:50;12.20;99.90
31837;DHT22;18401;49.344;6.240;2022-07-03T03:08:36;12.20;99.90
31837;DHT22;18401;49.344;6.240;2022-07-03T03:11:09;12.50;99.90
31837;DHT22;18401;49.344;6.240;2022-07-03T03:13:39;12.50;99.90
31837;DHT22;18401;49.344;6.240;2022-07-03T03:16:11;12.40;99.90
31837;DHT22;18401;49.344;6.240;2022-07-03T03:18:39;12.30;99.90
31837;DHT22;18401;49.344;6.240;2022-07-03T03:21:09;12.30;99.90
31837;DHT22;18401;49.344;6.240;2022-07-03T03:23:46;12.20;99.90
31837;DHT22;18401;49.344;6.240;2022-07-03T03:26:17;12.10;99.90
31837;DHT22;18401;49.344;6.240;2022-07-03T03:28:43;12.00;99.90
31837;DHT22;18401;49.344;6.240;2022-07-03T03:31:09;11.90;99.90
31837;DHT22;18401;49.344;6.240;2022-07-03T03:33:39;11.90;99.90
31837;DHT22;18401;49.344;6.240;2022-07-03T03:36:07;12.10;99.90
31837;DHT22;18401;49.344;6.240;2022-07-03T03:38:34;12.20;99.90
31837;DHT22;18401;49.344;6.240;2022-07-03T03:41:01;11.60;99.90
31837;DHT22;18401;49.344;6.240;2022-07-03T03:43:27;12.10;99.90
31837;DHT22;18401;49.344;6.240;2022-07-03T03:45:52;12.10;99.90
31837;DHT22;18401;49.344;6.240;2022-07-03T03:48:18;12.20;99.90
31837;DHT22;18401;49.344;6.240;2022-07-03T03:50:44;13.10;99.90
31837;DHT22;18401;49.344;6.240;2022-07-03T03:53:13;11.80;99.90
31837;DHT22;18401;49.344;6.240;2022-07-03T03:56:07;11.70;99.90
31837;DHT22;18401;49.344;6.240;2022-07-03T03:58:36;11.50;99.90
31837;DHT22;18401;49.344;6.240;2022-07-03T04:01:03;11.50;99.90
31837;DHT22;18401;49.344;6.240;2022-07-03T04:03:30;11.50;99.90
31837;DHT22;18401;49.344;6.240;2022-07-03T04:05:56;11.50;99.90
31837;DHT22;18401;49.344;6.240;2022-07-03T04:08:23;11.10;99.90
31837;DHT22;18401;49.344;6.240;2022-07-03T04:10:49;11.70;99.90
31837;DHT22;18401;49.344;6.240;2022-07-03T04:13:16;11.80;99.90
31837;DHT22;18401;49.344;6.240;2022-07-03T04:15:42;12.00;99.90
31837;DHT22;18401;49.344;6.240;2022-07-03T04:18:08;12.00;99.90
31837;DHT22;18401;49.344;6.240;2022-07-03T04:20:34;12.10;99.90
31837;DHT22;18401;49.344;6.240;2022-07-03T04:23:00;12.10;99.90
31837;DHT22;18401;49.344;6.240;2022-07-03T04:25:26;11.20;99.90
31837;DHT22;18401;49.344;6.240;2022-07-03T04:27:52;12.30;99.90
31837;DHT22;18401;49.344;6.240;2022-07-03T04:30:18;12.40;99.90
31837;DHT22;18401;49.344;6.240;2022-07-03T04:32:44;12.40;99.90
31837;DHT22;18401;49.344;6.240;2022-07-03T04:35:10;12.50;99.90
31837;DHT22;18401;49.344;6.240;2022-07-03T04:37:36;12.60;99.90
31837;DHT22;18401;49.344;6.240;2022-07-03T04:40:02;12.70;99.90
31837;DHT22;18401;49.344;6.240;2022-07-03T04:42:27;12.80;99.90
31837;DHT22;18401;49.344;6.240;2022-07-03T04:44:53;13.00;99.90
31837;DHT22;18401;49.344;6.240;2022-07-03T04:47:19;13.20;99.90
31837;DHT22;18401;49.344;6.240;2022-07-03T04:49:46;13.30;99.90
31837;DHT22;18401;49.344;6.240;2022-07-03T04:52:11;13.50;99.90
31837;DHT22;18401;49.344;6.240;2022-07-03T04:54:37;13.70;99.90
31837;DHT22;18401;49.344;6.240;2022-07-03T04:57:03;13.90;99.90
31837;DHT22;18401;49.344;6.240;2022-07-03T04:59:29;14.00;99.90
31837;DHT22;18401;49.344;6.240;2022-07-03T05:01:55;14.20;99.90
31837;DHT22;18401;49.344;6.240;2022-07-03T05:04:21;14.20;99.90
31837;DHT22;18401;49.344;6.240;2022-07-03T05:06:47;14.40;99.90
31837;DHT22;18401;49.344;6.240;2022-07-03T05:09:13;14.50;99.90
31837;DHT22;18401;49.344;6.240;2022-07-03T05:11:39;14.70;99.90
31837;DHT22;18401;49.344;6.240;2022-07-03T05:14:05;14.80;99.90
31837;DHT22;18401;49.344;6.240;2022-07-03T05:16:31;14.80;99.90
31837;DHT22;18401;49.344;6.240;2022-07-03T05:18:57;15.30;99.90
31837;DHT22;18401;49.344;6.240;2022-07-03T05:21:23;15.50;99.90
31837;DHT22;18401;49.344;6.240;2022-07-03T05:23:49;15.80;99.90
31837;DHT22;18401;49.344;6.240;2022-07-03T05:26:14;16.00;99.90
31837;DHT22;18401;49.344;6.240;2022-07-03T05:28:40;16.10;99.90
31837;DHT22;18401;49.344;6.240;2022-07-03T05:31:06;16.20;99.90
31837;DHT22;18401;49.344;6.240;2022-07-03T05:33:32;16.40;99.90
31837;DHT22;18401;49.344;6.240;2022-07-03T05:35:59;16.50;99.90
31837;DHT22;18401;49.344;6.240;2022-07-03T05:38:25;16.60;99.90
31837;DHT22;18401;49.344;6.240;2022-07-03T05:41:09;16.80;99.90
31837;DHT22;18401;49.344;6.240;2022-07-03T05:43:35;16.90;99.90
31837;DHT22;18401;49.344;6.240;2022-07-03T05:46:01;17.00;99.90
31837;DHT22;18401;49.344;6.240;2022-07-03T05:48:28;17.10;99.90
31837;DHT22;18401;49.344;6.240;2022-07-03T05:50:54;17.20;99.90
31837;DHT22;18401;49.344;6.240;2022-07-03T05:53:19;17.30;99.90
31837;DHT22;18401;49.344;6.240;2022-07-03T05:55:45;17.30;99.90
31837;DHT22;18401;49.344;6.240;2022-07-03T05:58:11;17.50;99.90
31837;DHT22;18401;49.344;6.240;2022-07-03T06:00:36;17.50;99.90
31837;DHT22;18401;49.344;6.240;2022-07-03T06:03:02;17.70;99.90
31837;DHT22;18401;49.344;6.240;2022-07-03T06:05:28;17.80;99.90
31837;DHT22;18401;49.344;6.240;2022-07-03T06:07:54;17.90;99.90
31837;DHT22;18401;49.344;6.240;2022-07-03T06:10:20;18.10;99.90
31837;DHT22;18401;49.344;6.240;2022-07-03T06:12:45;18.20;99.90
31837;DHT22;18401;49.344;6.240;2022-07-03T06:15:11;18.40;99.90
31837;DHT22;18401;49.344;6.240;2022-07-03T06:17:37;18.50;99.90
31837;DHT22;18401;49.344;6.240;2022-07-03T06:20:06;18.60;99.90
31837;DHT22;18401;49.344;6.240;2022-07-03T06:22:33;18.80;99.90
31837;DHT22;18401;49.344;6.240;2022-07-03T06:24:59;18.80;99.90
31837;DHT22;18401;49.344;6.240;2022-07-03T06:27:25;19.00;99.90
31837;DHT22;18401;49.344;6.240;2022-07-03T06:29:51;19.10;99.90
31837;DHT22;18401;49.344;6.240;2022-07-03T06:32:17;19.20;99.90
31837;DHT22;18401;49.344;6.240;2022-07-03T06:34:43;19.20;99.90
31837;DHT22;18401;49.344;6.240;2022-07-03T06:37:12;19.30;99.90
31837;DHT22;18401;49.344;6.240;2022-07-03T06:39:38;19.50;99.90
31837;DHT22;18401;49.344;6.240;2022-07-03T06:42:04;19.50;99.90
31837;DHT22;18401;49.344;6.240;2022-07-03T06:44:30;19.70;99.90
31837;DHT22;18401;49.344;6.240;2022-07-03T06:46:56;19.80;99.90
31837;DHT22;18401;49.344;6.240;2022-07-03T06:49:22;19.80;99.90
31837;DHT22;18401;49.344;6.240;2022-07-03T06:51:48;20.00;99.90
31837;DHT22;18401;49.344;6.240;2022-07-03T06:54:13;20.20;99.90
31837;DHT22;18401;49.344;6.240;2022-07-03T06:56:39;20.30;99.90
31837;DHT22;18401;49.344;6.240;2022-07-03T06:59:05;20.40;99.90
31837;DHT22;18401;49.344;6.240;2022-07-03T07:01:31;20.50;99.90
31837;DHT22;18401;49.344;6.240;2022-07-03T07:03:56;20.70;99.90
31837;DHT22;18401;49.344;6.240;2022-07-03T07:06:22;20.90;99.90
31837;DHT22;18401;49.344;6.240;2022-07-03T07:08:48;21.00;99.90
31837;DHT22;18401;49.344;6.240;2022-07-03T07:11:14;21.20;99.90
31837;DHT22;18401;49.344;6.240;2022-07-03T07:13:40;21.30;99.90
31837;DHT22;18401;49.344;6.240;2022-07-03T07:16:06;21.40;99.90
31837;DHT22;18401;49.344;6.240;2022-07-03T07:18:32;21.50;99.90
31837;DHT22;18401;49.344;6.240;2022-07-03T07:20:57;21.70;99.90
31837;DHT22;18401;49.344;6.240;2022-07-03T07:23:23;21.70;99.90
31837;DHT22;18401;49.344;6.240;2022-07-03T07:25:49;21.90;99.90
31837;DHT22;18401;49.344;6.240;2022-07-03T07:28:14;22.10;99.90
31837;DHT22;18401;49.344;6.240;2022-07-03T07:30:40;22.50;99.90
31837;DHT22;18401;49.344;6.240;2022-07-03T07:33:07;22.40;99.90
31837;DHT22;18401;49.344;6.240;2022-07-03T07:35:32;22.40;99.90
31837;DHT22;18401;49.344;6.240;2022-07-03T07:37:58;22.60;99.90
31837;DHT22;18401;49.344;6.240;2022-07-03T07:40:24;22.70;99.90
31837;DHT22;18401;49.344;6.240;2022-07-03T07:42:50;22.90;99.60
31837;DHT22;18401;49.344;6.240;2022-07-03T07:45:16;23.00;99.90
31837;DHT22;18401;49.344;6.240;2022-07-03T07:47:41;23.00;99.90
31837;DHT22;18401;49.344;6.240;2022-07-03T07:50:07;23.30;98.70
31837;DHT22;18401;49.344;6.240;2022-07-03T07:52:33;23.20;97.60
31837;DHT22;18401;49.344;6.240;2022-07-03T07:54:59;23.30;97.60
31837;DHT22;18401;49.344;6.240;2022-07-03T07:57:25;23.30;98.10
31837;DHT22;18401;49.344;6.240;2022-07-03T07:59:51;23.60;98.30
31837;DHT22;18401;49.344;6.240;2022-07-03T08:02:17;23.20;95.20
31837;DHT22;18401;49.344;6.240;2022-07-03T08:05:01;23.90;95.40
31837;DHT22;18401;49.344;6.240;2022-07-03T08:07:45;24.10;94.50
31837;DHT22;18401;49.344;6.240;2022-07-03T08:10:11;24.20;95.40
31837;DHT22;18401;49.344;6.240;2022-07-03T08:12:36;24.20;92.60
31837;DHT22;18401;49.344;6.240;2022-07-03T08:15:02;24.10;92.20
31837;DHT22;18401;49.344;6.240;2022-07-03T08:17:28;24.30;91.80
31837;DHT22;18401;49.344;6.240;2022-07-03T08:19:54;24.60;92.40
31837;DHT22;18401;49.344;6.240;2022-07-03T08:22:19;24.90;90.10
31837;DHT22;18401;49.344;6.240;2022-07-03T08:24:45;24.90;92.30
31837;DHT22;18401;49.344;6.240;2022-07-03T08:27:11;24.80;92.30
31837;DHT22;18401;49.344;6.240;2022-07-03T08:29:36;25.10;92.30
31837;DHT22;18401;49.344;6.240;2022-07-03T08:32:03;25.20;90.60
31837;DHT22;18401;49.344;6.240;2022-07-03T08:34:29;25.20;87.80
31837;DHT22;18401;49.344;6.240;2022-07-03T08:36:54;25.20;88.10
31837;DHT22;18401;49.344;6.240;2022-07-03T08:39:20;25.40;86.10
31837;DHT22;18401;49.344;6.240;2022-07-03T08:41:48;25.60;86.50
31837;DHT22;18401;49.344;6.240;2022-07-03T08:44:14;25.30;84.00
31837;DHT22;18401;49.344;6.240;2022-07-03T08:46:42;25.50;88.10
31837;DHT22;18401;49.344;6.240;2022-07-03T08:49:10;25.50;85.60
31837;DHT22;18401;49.344;6.240;2022-07-03T08:51:36;25.40;85.00
31837;DHT22;18401;49.344;6.240;2022-07-03T08:54:01;25.30;84.10
31837;DHT22;18401;49.344;6.240;2022-07-03T08:56:28;25.50;82.30
31837;DHT22;18401;49.344;6.240;2022-07-03T08:58:57;25.80;81.70
31837;DHT22;18401;49.344;6.240;2022-07-03T09:01:24;25.80;79.60
31837;DHT22;18401;49.344;6.240;2022-07-03T09:03:51;26.10;79.00
31837;DHT22;18401;49.344;6.240;2022-07-03T09:06:17;26.50;76.80
31837;DHT22;18401;49.344;6.240;2022-07-03T09:08:44;26.50;77.90
31837;DHT22;18401;49.344;6.240;2022-07-03T09:11:10;26.30;77.90
31837;DHT22;18401;49.344;6.240;2022-07-03T09:13:37;26.10;75.60
31837;DHT22;18401;49.344;6.240;2022-07-03T09:16:02;26.00;74.90
31837;DHT22;18401;49.344;6.240;2022-07-03T09:21:04;26.60;78.60
31837;DHT22;18401;49.344;6.240;2022-07-03T09:23:35;27.00;75.10
31837;DHT22;18401;49.344;6.240;2022-07-03T09:26:03;26.80;74.90
31837;DHT22;18401;49.344;6.240;2022-07-03T09:28:49;27.10;77.00
31837;DHT22;18401;49.344;6.240;2022-07-03T09:31:22;27.50;75.40
31837;DHT22;18401;49.344;6.240;2022-07-03T09:39:29;26.30;67.30
31837;DHT22;18401;49.344;6.240;2022-07-03T09:42:05;25.40;69.10
31837;DHT22;18401;49.344;6.240;2022-07-03T09:47:14;26.60;67.60
31837;DHT22;18401;49.344;6.240;2022-07-03T09:55:21;27.80;69.00
31837;DHT22;18401;49.344;6.240;2022-07-03T09:57:59;28.30;64.60
31837;DHT22;18401;49.344;6.240;2022-07-03T10:00:31;27.80;66.10
31837;DHT22;18401;49.344;6.240;2022-07-03T10:02:59;26.10;65.90
31837;DHT22;18401;49.344;6.240;2022-07-03T10:05:31;27.50;63.60
31837;DHT22;18401;49.344;6.240;2022-07-03T10:10:36;28.20;64.50
31837;DHT22;18401;49.344;6.240;2022-07-03T10:13:02;28.70;67.20
31837;DHT22;18401;49.344;6.240;2022-07-03T10:15:31;27.70;66.20
31837;DHT22;18401;49.344;6.240;2022-07-03T10:17:58;27.60;65.70
31837;DHT22;18401;49.344;6.240;2022-07-03T10:20:28;27.70;64.60
31837;DHT22;18401;49.344;6.240;2022-07-03T10:22:54;28.00;67.10
31837;DHT22;18401;49.344;6.240;2022-07-03T10:25:20;28.40;66.60
31837;DHT22;18401;49.344;6.240;2022-07-03T10:27:47;28.00;60.20
31837;DHT22;18401;49.344;6.240;2022-07-03T10:30:19;28.00;62.20
31837;DHT22;18401;49.344;6.240;2022-07-03T10:32:47;28.10;61.10
31837;DHT22;18401;49.344;6.240;2022-07-03T10:35:15;28.60;61.80
31837;DHT22;18401;49.344;6.240;2022-07-03T10:41:03;29.20;64.00
31837;DHT22;18401;49.344;6.240;2022-07-03T10:43:48;29.80;62.10
31837;DHT22;18401;49.344;6.240;2022-07-03T10:46:35;28.60;60.40
31837;DHT22;18401;49.344;6.240;2022-07-03T10:49:12;29.10;61.90
31837;DHT22;18401;49.344;6.240;2022-07-03T10:51:54;29.60;59.40
31837;DHT22;18401;49.344;6.240;2022-07-03T10:54:27;30.10;60.40
31837;DHT22;18401;49.344;6.240;2022-07-03T11:02:26;29.30;59.20
31837;DHT22;18401;49.344;6.240;2022-07-03T11:07:30;30.10;58.20
31837;DHT22;18401;49.344;6.240;2022-07-03T11:15:34;30.60;57.50
31837;DHT22;18401;49.344;6.240;2022-07-03T11:18:10;29.80;57.60
31837;DHT22;18401;49.344;6.240;2022-07-03T11:23:54;30.20;59.00
31837;DHT22;18401;49.344;6.240;2022-07-03T11:26:22;29.70;57.10
31837;DHT22;18401;49.344;6.240;2022-07-03T11:28:52;29.90;61.00
31837;DHT22;18401;49.344;6.240;2022-07-03T11:31:19;30.60;58.40
31837;DHT22;18401;49.344;6.240;2022-07-03T11:33:49;29.90;59.30
31837;DHT22;18401;49.344;6.240;2022-07-03T11:38:41;30.60;59.60
31837;DHT22;18401;49.344;6.240;2022-07-03T11:41:09;30.80;58.90
31837;DHT22;18401;49.344;6.240;2022-07-03T11:43:35;29.70;58.00
31837;DHT22;18401;49.344;6.240;2022-07-03T11:46:01;30.80;58.70
31837;DHT22;18401;49.344;6.240;2022-07-03T11:48:27;30.80;58.90
31837;DHT22;18401;49.344;6.240;2022-07-03T11:51:03;30.60;57.60
31837;DHT22;18401;49.344;6.240;2022-07-03T11:53:31;30.00;58.40
31837;DHT22;18401;49.344;6.240;2022-07-03T11:58:47;28.80;60.20
31837;DHT22;18401;49.344;6.240;2022-07-03T12:06:46;30.50;56.70
31837;DHT22;18401;49.344;6.240;2022-07-03T12:09:29;28.90;57.80
31837;DHT22;18401;49.344;6.240;2022-07-03T12:12:01;28.20;58.90
31837;DHT22;18401;49.344;6.240;2022-07-03T12:14:47;29.40;59.70
31837;DHT22;18401;49.344;6.240;2022-07-03T12:22:29;30.90;59.00
31837;DHT22;18401;49.344;6.240;2022-07-03T12:24:57;31.20;57.00
31837;DHT22;18401;49.344;6.240;2022-07-03T12:27:24;31.40;58.50
31837;DHT22;18401;49.344;6.240;2022-07-03T12:29:50;31.30;57.80
31837;DHT22;18401;49.344;6.240;2022-07-03T12:32:17;29.90;55.30
31837;DHT22;18401;49.344;6.240;2022-07-03T12:34:43;29.20;58.40
31837;DHT22;18401;49.344;6.240;2022-07-03T12:37:08;29.80;58.10
31837;DHT22;18401;49.344;6.240;2022-07-03T12:39:48;30.90;58.90
31837;DHT22;18401;49.344;6.240;2022-07-03T12:42:23;30.20;57.80
31837;DHT22;18401;49.344;6.240;2022-07-03T12:47:21;31.00;55.80
31837;DHT22;18401;49.344;6.240;2022-07-03T12:49:53;32.10;55.60
31837;DHT22;18401;49.344;6.240;2022-07-03T12:52:19;32.40;55.10
31837;DHT22;18401;49.344;6.240;2022-07-03T12:54:44;31.80;55.10
31837;DHT22;18401;49.344;6.240;2022-07-03T12:57:11;30.60;58.50
31837;DHT22;18401;49.344;6.240;2022-07-03T13:00:16;30.90;56.80
31837;DHT22;18401;49.344;6.240;2022-07-03T13:02:44;30.80;55.20
31837;DHT22;18401;49.344;6.240;2022-07-03T13:05:20;30.60;55.60
31837;DHT22;18401;49.344;6.240;2022-07-03T13:07:54;30.50;55.40
31837;DHT22;18401;49.344;6.240;2022-07-03T13:10:23;29.60;56.30
31837;DHT22;18401;49.344;6.240;2022-07-03T13:12:53;29.90;56.80
31837;DHT22;18401;49.344;6.240;2022-07-03T13:15:20;29.30;58.30
31837;DHT22;18401;49.344;6.240;2022-07-03T13:20:30;27.50;58.70
31837;DHT22;18401;49.344;6.240;2022-07-03T13:22:59;27.90;60.20
31837;DHT22;18401;49.344;6.240;2022-07-03T13:25:25;28.60;58.90
31837;DHT22;18401;49.344;6.240;2022-07-03T13:27:51;29.90;58.40
31837;DHT22;18401;49.344;6.240;2022-07-03T13:30:18;30.10;55.80
31837;DHT22;18401;49.344;6.240;2022-07-03T13:32:45;30.50;56.50
31837;DHT22;18401;49.344;6.240;2022-07-03T13:35:11;30.30;56.80
31837;DHT22;18401;49.344;6.240;2022-07-03T13:37:37;30.70;56.10
31837;DHT22;18401;49.344;6.240;2022-07-03T13:40:05;30.50;57.20
31837;DHT22;18401;49.344;6.240;2022-07-03T13:42:31;29.80;57.50
31837;DHT22;18401;49.344;6.240;2022-07-03T13:44:57;30.10;59.90
31837;DHT22;18401;49.344;6.240;2022-07-03T13:47:22;30.40;56.30
31837;DHT22;18401;49.344;6.240;2022-07-03T13:49:48;30.80;57.50
31837;DHT22;18401;49.344;6.240;2022-07-03T13:52:14;28.80;58.10
31837;DHT22;18401;49.344;6.240;2022-07-03T13:54:40;28.70;59.10
31837;DHT22;18401;49.344;6.240;2022-07-03T13:57:06;29.70;59.90
31837;DHT22;18401;49.344;6.240;2022-07-03T13:59:31;29.50;57.60
31837;DHT22;18401;49.344;6.240;2022-07-03T14:01:59;29.90;58.00
31837;DHT22;18401;49.344;6.240;2022-07-03T14:04:25;30.60;58.70
31837;DHT22;18401;49.344;6.240;2022-07-03T14:06:51;31.90;57.50
31837;DHT22;18401;49.344;6.240;2022-07-03T14:09:17;30.40;56.30
31837;DHT22;18401;49.344;6.240;2022-07-03T14:11:42;29.00;56.40
31837;DHT22;18401;49.344;6.240;2022-07-03T14:14:08;28.90;56.50
31837;DHT22;18401;49.344;6.240;2022-07-03T14:16:34;29.60;58.70
31837;DHT22;18401;49.344;6.240;2022-07-03T14:19:00;31.00;56.80
31837;DHT22;18401;49.344;6.240;2022-07-03T14:21:28;31.00;54.90
31837;DHT22;18401;49.344;6.240;2022-07-03T14:23:54;31.00;56.10
31837;DHT22;18401;49.344;6.240;2022-07-03T14:26:20;31.10;56.80
31837;DHT22;18401;49.344;6.240;2022-07-03T14:29:06;30.20;56.70
31837;DHT22;18401;49.344;6.240;2022-07-03T14:31:52;30.20;58.30
31837;DHT22;18401;49.344;6.240;2022-07-03T14:34:36;30.20;57.50
31837;DHT22;18401;49.344;6.240;2022-07-03T14:37:02;29.90;56.40
31837;DHT22;18401;49.344;6.240;2022-07-03T14:39:28;29.70;58.70
31837;DHT22;18401;49.344;6.240;2022-07-03T14:41:53;29.50;56.00
31837;DHT22;18401;49.344;6.240;2022-07-03T14:44:19;28.50;58.20
31837;DHT22;18401;49.344;6.240;2022-07-03T14:46:49;27.60;59.50
31837;DHT22;18401;49.344;6.240;2022-07-03T14:49:15;27.40;60.80
31837;DHT22;18401;49.344;6.240;2022-07-03T14:51:41;28.60;59.80
31837;DHT22;18401;49.344;6.240;2022-07-03T14:54:07;29.20;58.70
31837;DHT22;18401;49.344;6.240;2022-07-03T14:56:34;29.80;58.40
31837;DHT22;18401;49.344;6.240;2022-07-03T14:59:07;29.50;60.60
31837;DHT22;18401;49.344;6.240;2022-07-03T15:01:36;28.70;59.60
31837;DHT22;18401;49.344;6.240;2022-07-03T15:04:03;29.40;60.10
31837;DHT22;18401;49.344;6.240;2022-07-03T15:06:29;29.40;59.90
31837;DHT22;18401;49.344;6.240;2022-07-03T15:09:03;29.40;60.20
31837;DHT22;18401;49.344;6.240;2022-07-03T15:11:34;29.90;60.40
31837;DHT22;18401;49.344;6.240;2022-07-03T15:14:23;30.20;61.30
31837;DHT22;18401;49.344;6.240;2022-07-03T15:16:51;29.50;60.30
31837;DHT22;18401;49.344;6.240;2022-07-03T15:19:19;29.30;60.90
31837;DHT22;18401;49.344;6.240;2022-07-03T15:21:48;29.30;61.60
31837;DHT22;18401;49.344;6.240;2022-07-03T15:24:15;28.90;62.00
31837;DHT22;18401;49.344;6.240;2022-07-03T15:26:44;29.10;63.80
31837;DHT22;18401;49.344;6.240;2022-07-03T15:29:13;30.20;63.10
31837;DHT22;18401;49.344;6.240;2022-07-03T15:31:40;29.40;63.00
31837;DHT22;18401;49.344;6.240;2022-07-03T15:34:06;29.00;63.00
31837;DHT22;18401;49.344;6.240;2022-07-03T15:36:55;28.50;62.80
31837;DHT22;18401;49.344;6.240;2022-07-03T15:39:30;28.20;62.70
31837;DHT22;18401;49.344;6.240;2022-07-03T15:42:10;28.30;67.90
31837;DHT22;18401;49.344;6.240;2022-07-03T15:44:52;28.60;63.60
31837;DHT22;18401;49.344;6.240;2022-07-03T15:47:41;28.40;65.20
31837;DHT22;18401;49.344;6.240;2022-07-03T15:50:20;28.30;66.40
31837;DHT22;18401;49.344;6.240;2022-07-03T15:52:48;28.50;66.20
31837;DHT22;18401;49.344;6.240;2022-07-03T15:55:14;29.30;65.30
31837;DHT22;18401;49.344;6.240;2022-07-03T15:58:03;29.90;62.60
31837;DHT22;18401;49.344;6.240;2022-07-03T16:00:34;29.90;62.50
31837;DHT22;18401;49.344;6.240;2022-07-03T16:05:38;28.20;65.60
31837;DHT22;18401;49.344;6.240;2022-07-03T16:08:13;27.90;65.60
31837;DHT22;18401;49.344;6.240;2022-07-03T16:10:39;27.80;66.10
31837;DHT22;18401;49.344;6.240;2022-07-03T16:13:06;28.40;67.80
31837;DHT22;18401;49.344;6.240;2022-07-03T16:15:40;28.70;65.30
31837;DHT22;18401;49.344;6.240;2022-07-03T16:18:08;28.10;63.70
31837;DHT22;18401;49.344;6.240;2022-07-03T16:20:34;28.50;65.40
31837;DHT22;18401;49.344;6.240;2022-07-03T16:23:12;28.70;65.40
31837;DHT22;18401;49.344;6.240;2022-07-03T16:25:38;29.00;64.30
31837;DHT22;18401;49.344;6.240;2022-07-03T16:28:08;28.70;64.30
31837;DHT22;18401;49.344;6.240;2022-07-03T16:30:36;28.30;65.60
31837;DHT22;18401;49.344;6.240;2022-07-03T16:33:05;28.60;63.50
31837;DHT22;18401;49.344;6.240;2022-07-03T16:35:47;28.20;65.00
31837;DHT22;18401;49.344;6.240;2022-07-03T16:38:20;28.10;65.10
31837;DHT22;18401;49.344;6.240;2022-07-03T16:40:47;27.60;68.80
31837;DHT22;18401;49.344;6.240;2022-07-03T16:43:14;27.50;65.60
31837;DHT22;18401;49.344;6.240;2022-07-03T16:45:44;27.80;66.50
31837;DHT22;18401;49.344;6.240;2022-07-03T16:48:22;27.80;65.80
31837;DHT22;18401;49.344;6.240;2022-07-03T16:50:53;27.60;65.90
31837;DHT22;18401;49.344;6.240;2022-07-03T16:53:21;27.60;66.20
31837;DHT22;18401;49.344;6.240;2022-07-03T16:55:47;27.80;64.70
31837;DHT22;18401;49.344;6.240;2022-07-03T16:58:13;27.70;67.00
31837;DHT22;18401;49.344;6.240;2022-07-03T17:00:41;27.90;65.10
31837;DHT22;18401;49.344;6.240;2022-07-03T17:03:08;28.20;64.00
31837;DHT22;18401;49.344;6.240;2022-07-03T17:05:35;28.30;64.80
31837;DHT22;18401;49.344;6.240;2022-07-03T17:08:02;28.50;63.80
31837;DHT22;18401;49.344;6.240;2022-07-03T17:10:28;28.60;63.60
31837;DHT22;18401;49.344;6.240;2022-07-03T17:12:57;28.40;64.50
31837;DHT22;18401;49.344;6.240;2022-07-03T17:15:24;28.60;65.00
31837;DHT22;18401;49.344;6.240;2022-07-03T17:18:11;28.60;63.40
31837;DHT22;18401;49.344;6.240;2022-07-03T17:20:40;29.10;63.30